sensor_id;sensor_type;location;lat;lon;timestamp;temperature;humidity
54938;DHT22;52756;52.826;6.214;2022-08-06T00:01:52;17.50;51.00
54938;DHT22;52756;52.826;6.214;2022-08-06T00:04:18;17.50;51.00
54938;DHT22;52756;52.826;6.214;2022-08-06T00:06:44;17.50;51.10
54938;DHT22;52756;52.826;6.214;2022-08-06T00:09:10;17.50;51.20
54938;DHT22;52756;52.826;6.214;2022-08-06T00:11:38;17.40;51.20
54938;DHT22;52756;52.826;6.214;2022-08-06T00:14:04;17.40;51.30
54938;DHT22;52756;52.826;6.214;2022-08-06T00:16:30;17.40;51.30
54938;DHT22;52756;52.826;6.214;2022-08-06T00:18:55;17.40;51.40
54938;DHT22;52756;52.826;6.214;2022-08-06T00:21:21;17.40;51.50
54938;DHT22;52756;52.826;6.214;2022-08-06T00:23:47;17.40;51.70
54938;DHT22;52756;52.826;6.214;2022-08-06T00:26:12;17.30;51.50
54938;DHT22;52756;52.826;6.214;2022-08-06T00:28:38;17.30;51.60
54938;DHT22;52756;52.826;6.214;2022-08-06T00:31:04;17.30;51.60
54938;DHT22;52756;52.826;6.214;2022-08-06T00:33:31;17.30;51.70
54938;DHT22;52756;52.826;6.214;2022-08-06T00:35:56;17.20;51.70
54938;DHT22;52756;52.826;6.214;2022-08-06T00:38:22;17.20;51.80
54938;DHT22;52756;52.826;6.214;2022-08-06T00:40:48;17.20;51.80
54938;DHT22;52756;52.826;6.214;2022-08-06T00:43:15;17.20;51.90
54938;DHT22;52756;52.826;6.214;2022-08-06T00:45:41;17.10;51.90
54938;DHT22;52756;52.826;6.214;2022-08-06T00:48:07;17.10;51.90
54938;DHT22;52756;52.826;6.214;2022-08-06T00:50:34;17.10;52.00
54938;DHT22;52756;52.826;6.214;2022-08-06T00:53:00;17.10;52.40
54938;DHT22;52756;52.826;6.214;2022-08-06T00:55:27;17.10;52.10
54938;DHT22;52756;52.826;6.214;2022-08-06T00:57:52;17.10;52.10
54938;DHT22;52756;52.826;6.214;2022-08-06T01:00:18;17.00;52.00
54938;DHT22;52756;52.826;6.214;2022-08-06T01:02:44;17.00;52.10
54938;DHT22;52756;52.826;6.214;2022-08-06T01:05:10;17.00;52.00
54938;DHT22;52756;52.826;6.214;2022-08-06T01:07:36;17.00;52.00
54938;DHT22;52756;52.826;6.214;2022-08-06T01:10:02;16.90;51.90
54938;DHT22;52756;52.826;6.214;2022-08-06T01:12:28;16.90;51.90
54938;DHT22;52756;52.826;6.214;2022-08-06T01:14:54;16.90;51.90
54938;DHT22;52756;52.826;6.214;2022-08-06T01:17:33;16.90;51.90
54938;DHT22;52756;52.826;6.214;2022-08-06T01:28:01;16.80;52.00
54938;DHT22;52756;52.826;6.214;2022-08-06T01:30:48;16.70;51.90
54938;DHT22;52756;52.826;6.214;2022-08-06T01:33:27;16.70;51.90
54938;DHT22;52756;52.826;6.214;2022-08-06T01:36:00;16.60;51.90
54938;DHT22;52756;52.826;6.214;2022-08-06T01:38:34;16.60;51.80
54938;DHT22;52756;52.826;6.214;2022-08-06T01:41:04;16.50;51.90
54938;DHT22;52756;52.826;6.214;2022-08-06T01:43:32;16.50;52.00
54938;DHT22;52756;52.826;6.214;2022-08-06T01:46:00;16.50;52.10
54938;DHT22;52756;52.826;6.214;2022-08-06T01:48:27;16.40;52.10
54938;DHT22;52756;52.826;6.214;2022-08-06T01:50:58;16.40;52.10
54938;DHT22;52756;52.826;6.214;2022-08-06T01:53:30;16.40;52.20
54938;DHT22;52756;52.826;6.214;2022-08-06T01:56:00;16.40;52.20
54938;DHT22;52756;52.826;6.214;2022-08-06T01:58:29;16.40;52.30
54938;DHT22;52756;52.826;6.214;2022-08-06T02:00:56;16.40;52.30
54938;DHT22;52756;52.826;6.214;2022-08-06T02:03:28;16.40;52.40
54938;DHT22;52756;52.826;6.214;2022-08-06T02:05:56;16.30;52.40
54938;DHT22;52756;52.826;6.214;2022-08-06T02:08:26;16.30;52.50
54938;DHT22;52756;52.826;6.214;2022-08-06T02:10:53;16.30;52.60
54938;DHT22;52756;52.826;6.214;2022-08-06T02:13:21;16.20;52.60
54938;DHT22;52756;52.826;6.214;2022-08-06T02:15:48;16.20;52.60
54938;DHT22;52756;52.826;6.214;2022-08-06T02:18:17;16.20;52.70
54938;DHT22;52756;52.826;6.214;2022-08-06T02:20:47;16.20;52.70
54938;DHT22;52756;52.826;6.214;2022-08-06T02:23:21;16.20;52.70
54938;DHT22;52756;52.826;6.214;2022-08-06T02:25:49;16.10;52.70
54938;DHT22;52756;52.826;6.214;2022-08-06T02:28:18;16.10;52.60
54938;DHT22;52756;52.826;6.214;2022-08-06T02:30:47;16.10;52.80
54938;DHT22;52756;52.826;6.214;2022-08-06T02:33:16;16.10;52.80
54938;DHT22;52756;52.826;6.214;2022-08-06T02:40:55;16.00;52.80
54938;DHT22;52756;52.826;6.214;2022-08-06T02:43:27;15.90;52.80
54938;DHT22;52756;52.826;6.214;2022-08-06T02:46:43;15.90;52.90
54938;DHT22;52756;52.826;6.214;2022-08-06T02:48:54;15.90;53.00
54938;DHT22;52756;52.826;6.214;2022-08-06T02:51:38;15.90;53.10
54938;DHT22;52756;52.826;6.214;2022-08-06T02:54:17;15.90;53.10
54938;DHT22;52756;52.826;6.214;2022-08-06T02:56:45;15.80;53.10
54938;DHT22;52756;52.826;6.214;2022-08-06T02:59:15;15.80;53.20
54938;DHT22;52756;52.826;6.214;2022-08-06T03:01:48;15.80;53.30
54938;DHT22;52756;52.826;6.214;2022-08-06T03:04:15;15.80;53.40
54938;DHT22;52756;52.826;6.214;2022-08-06T03:06:43;15.80;53.40
54938;DHT22;52756;52.826;6.214;2022-08-06T03:09:12;15.80;53.40
54938;DHT22;52756;52.826;6.214;2022-08-06T03:11:41;15.80;53.40
54938;DHT22;52756;52.826;6.214;2022-08-06T03:14:09;15.80;53.40
54938;DHT22;52756;52.826;6.214;2022-08-06T03:16:36;15.80;53.40
54938;DHT22;52756;52.826;6.214;2022-08-06T03:19:04;15.80;53.50
54938;DHT22;52756;52.826;6.214;2022-08-06T03:21:32;15.80;53.50
54938;DHT22;52756;52.826;6.214;2022-08-06T03:23:59;15.70;53.50
54938;DHT22;52756;52.826;6.214;2022-08-06T03:26:27;15.80;53.50
54938;DHT22;52756;52.826;6.214;2022-08-06T03:28:55;15.80;53.60
54938;DHT22;52756;52.826;6.214;2022-08-06T03:31:23;15.80;53.50
54938;DHT22;52756;52.826;6.214;2022-08-06T03:33:49;15.80;53.50
54938;DHT22;52756;52.826;6.214;2022-08-06T03:36:16;15.70;53.40
54938;DHT22;52756;52.826;6.214;2022-08-06T03:39:00;15.70;53.30
54938;DHT22;52756;52.826;6.214;2022-08-06T03:41:29;15.70;53.30
54938;DHT22;52756;52.826;6.214;2022-08-06T03:43:55;15.70;53.70
54938;DHT22;52756;52.826;6.214;2022-08-06T03:49:57;15.60;53.20
54938;DHT22;52756;52.826;6.214;2022-08-06T03:52:28;15.60;53.30
54938;DHT22;52756;52.826;6.214;2022-08-06T03:54:58;15.60;53.30
54938;DHT22;52756;52.826;6.214;2022-08-06T03:57:30;15.60;53.30
54938;DHT22;52756;52.826;6.214;2022-08-06T03:59:58;15.50;53.30
54938;DHT22;52756;52.826;6.214;2022-08-06T04:02:52;15.50;53.30
54938;DHT22;52756;52.826;6.214;2022-08-06T04:05:20;15.50;53.30
54938;DHT22;52756;52.826;6.214;2022-08-06T04:07:54;15.50;53.40
54938;DHT22;52756;52.826;6.214;2022-08-06T04:10:23;15.50;53.50
54938;DHT22;52756;52.826;6.214;2022-08-06T04:12:49;15.40;53.80
54938;DHT22;52756;52.826;6.214;2022-08-06T04:15:15;15.50;53.60
54938;DHT22;52756;52.826;6.214;2022-08-06T04:17:43;15.50;53.60
54938;DHT22;52756;52.826;6.214;2022-08-06T04:20:15;15.40;53.60
54938;DHT22;52756;52.826;6.214;2022-08-06T04:22:42;15.40;53.80
54938;DHT22;52756;52.826;6.214;2022-08-06T04:25:08;15.40;53.90
54938;DHT22;52756;52.826;6.214;2022-08-06T04:27:37;15.40;54.10
54938;DHT22;52756;52.826;6.214;2022-08-06T04:30:05;15.40;54.20
54938;DHT22;52756;52.826;6.214;2022-08-06T04:32:32;15.40;54.30
54938;DHT22;52756;52.826;6.214;2022-08-06T04:35:02;15.40;54.50
54938;DHT22;52756;52.826;6.214;2022-08-06T04:37:29;15.40;54.90
54938;DHT22;52756;52.826;6.214;2022-08-06T04:39:55;15.40;54.90
54938;DHT22;52756;52.826;6.214;2022-08-06T04:42:21;15.40;55.10
54938;DHT22;52756;52.826;6.214;2022-08-06T04:44:47;15.40;55.30
54938;DHT22;52756;52.826;6.214;2022-08-06T04:47:14;15.40;55.30
54938;DHT22;52756;52.826;6.214;2022-08-06T04:49:40;15.40;55.30
54938;DHT22;52756;52.826;6.214;2022-08-06T04:52:06;15.40;55.50
54938;DHT22;52756;52.826;6.214;2022-08-06T04:54:32;15.40;55.70
54938;DHT22;52756;52.826;6.214;2022-08-06T04:56:57;15.50;56.30
54938;DHT22;52756;52.826;6.214;2022-08-06T04:59:23;15.40;56.40
54938;DHT22;52756;52.826;6.214;2022-08-06T05:01:48;15.50;56.90
54938;DHT22;52756;52.826;6.214;2022-08-06T05:04:14;15.50;57.20
54938;DHT22;52756;52.826;6.214;2022-08-06T05:06:45;15.50;57.40
54938;DHT22;52756;52.826;6.214;2022-08-06T05:09:16;15.50;57.70
54938;DHT22;52756;52.826;6.214;2022-08-06T05:11:47;15.50;58.20
54938;DHT22;52756;52.826;6.214;2022-08-06T05:14:18;15.50;58.80
54938;DHT22;52756;52.826;6.214;2022-08-06T05:16:46;15.70;59.50
54938;DHT22;52756;52.826;6.214;2022-08-06T05:19:22;15.90;59.70
54938;DHT22;52756;52.826;6.214;2022-08-06T05:21:49;16.10;59.30
54938;DHT22;52756;52.826;6.214;2022-08-06T05:24:16;16.30;58.90
54938;DHT22;52756;52.826;6.214;2022-08-06T05:26:42;16.40;58.40
54938;DHT22;52756;52.826;6.214;2022-08-06T05:29:08;16.40;58.00
54938;DHT22;52756;52.826;6.214;2022-08-06T05:31:35;16.50;58.00
54938;DHT22;52756;52.826;6.214;2022-08-06T05:34:02;16.50;57.80
54938;DHT22;52756;52.826;6.214;2022-08-06T05:36:28;16.60;57.90
54938;DHT22;52756;52.826;6.214;2022-08-06T05:38:54;16.60;57.70
54938;DHT22;52756;52.826;6.214;2022-08-06T05:41:20;16.60;57.50
54938;DHT22;52756;52.826;6.214;2022-08-06T05:43:46;16.70;57.40
54938;DHT22;52756;52.826;6.214;2022-08-06T05:46:18;16.70;57.70
54938;DHT22;52756;52.826;6.214;2022-08-06T05:49:12;16.70;57.80
54938;DHT22;52756;52.826;6.214;2022-08-06T05:51:46;16.70;58.00
54938;DHT22;52756;52.826;6.214;2022-08-06T05:54:38;16.80;58.90
54938;DHT22;52756;52.826;6.214;2022-08-06T05:57:14;17.10;59.70
54938;DHT22;52756;52.826;6.214;2022-08-06T05:59:47;17.60;59.60
54938;DHT22;52756;52.826;6.214;2022-08-06T06:02:14;18.00;59.70
54938;DHT22;52756;52.826;6.214;2022-08-06T06:04:42;18.50;58.50
54938;DHT22;52756;52.826;6.214;2022-08-06T06:07:09;19.10;57.70
54938;DHT22;52756;52.826;6.214;2022-08-06T06:09:36;19.70;56.70
54938;DHT22;52756;52.826;6.214;2022-08-06T06:12:03;20.30;55.50
54938;DHT22;52756;52.826;6.214;2022-08-06T06:14:42;20.80;54.50
54938;DHT22;52756;52.826;6.214;2022-08-06T06:20:15;21.90;52.40
54938;DHT22;52756;52.826;6.214;2022-08-06T06:22:49;22.50;51.30
54938;DHT22;52756;52.826;6.214;2022-08-06T06:25:23;23.00;50.60
54938;DHT22;52756;52.826;6.214;2022-08-06T06:28:21;23.50;50.00
54938;DHT22;52756;52.826;6.214;2022-08-06T06:31:10;24.00;48.70
54938;DHT22;52756;52.826;6.214;2022-08-06T06:34:09;24.50;48.00
54938;DHT22;52756;52.826;6.214;2022-08-06T06:42:49;25.70;45.20
54938;DHT22;52756;52.826;6.214;2022-08-06T06:45:16;26.10;44.10
54938;DHT22;52756;52.826;6.214;2022-08-06T06:47:57;26.50;43.50
54938;DHT22;52756;52.826;6.214;2022-08-06T06:50:32;26.70;42.30
54938;DHT22;52756;52.826;6.214;2022-08-06T06:53:00;26.80;41.70
54938;DHT22;52756;52.826;6.214;2022-08-06T06:55:31;26.80;41.50
54938;DHT22;52756;52.826;6.214;2022-08-06T06:58:10;26.90;41.10
54938;DHT22;52756;52.826;6.214;2022-08-06T07:00:37;27.10;41.10
54938;DHT22;52756;52.826;6.214;2022-08-06T07:03:05;27.30;40.80
54938;DHT22;52756;52.826;6.214;2022-08-06T07:05:33;27.50;40.30
54938;DHT22;52756;52.826;6.214;2022-08-06T07:08:03;27.80;40.30
54938;DHT22;52756;52.826;6.214;2022-08-06T07:10:31;28.00;39.90
54938;DHT22;52756;52.826;6.214;2022-08-06T07:12:58;28.20;39.40
54938;DHT22;52756;52.826;6.214;2022-08-06T07:15:26;28.30;38.80
54938;DHT22;52756;52.826;6.214;2022-08-06T07:17:52;28.50;38.60
54938;DHT22;52756;52.826;6.214;2022-08-06T07:20:22;28.50;38.20
54938;DHT22;52756;52.826;6.214;2022-08-06T07:22:51;28.60;38.20
54938;DHT22;52756;52.826;6.214;2022-08-06T07:25:18;28.70;38.00
54938;DHT22;52756;52.826;6.214;2022-08-06T07:27:50;28.80;37.70
54938;DHT22;52756;52.826;6.214;2022-08-06T07:30:18;28.80;37.60
54938;DHT22;52756;52.826;6.214;2022-08-06T07:32:45;28.90;37.20
54938;DHT22;52756;52.826;6.214;2022-08-06T07:35:12;29.10;37.20
54938;DHT22;52756;52.826;6.214;2022-08-06T07:37:42;29.20;36.80
54938;DHT22;52756;52.826;6.214;2022-08-06T07:40:18;29.20;36.40
54938;DHT22;52756;52.826;6.214;2022-08-06T07:42:45;29.30;36.40
54938;DHT22;52756;52.826;6.214;2022-08-06T07:45:15;29.40;36.10
54938;DHT22;52756;52.826;6.214;2022-08-06T07:47:42;29.40;35.80
54938;DHT22;52756;52.826;6.214;2022-08-06T07:50:13;29.40;35.90
54938;DHT22;52756;52.826;6.214;2022-08-06T07:52:40;29.30;36.00
54938;DHT22;52756;52.826;6.214;2022-08-06T07:55:08;29.30;35.90
54938;DHT22;52756;52.826;6.214;2022-08-06T07:57:36;29.20;36.00
54938;DHT22;52756;52.826;6.214;2022-08-06T08:00:03;29.30;35.90
54938;DHT22;52756;52.826;6.214;2022-08-06T08:02:29;29.40;35.80
54938;DHT22;52756;52.826;6.214;2022-08-06T08:04:56;29.40;35.80
54938;DHT22;52756;52.826;6.214;2022-08-06T08:07:40;29.40;36.00
54938;DHT22;52756;52.826;6.214;2022-08-06T08:10:07;29.40;35.70
54938;DHT22;52756;52.826;6.214;2022-08-06T08:12:36;29.30;35.40
54938;DHT22;52756;52.826;6.214;2022-08-06T08:15:04;29.20;35.70
54938;DHT22;52756;52.826;6.214;2022-08-06T08:17:30;29.10;35.80
54938;DHT22;52756;52.826;6.214;2022-08-06T08:20:07;29.00;36.10
54938;DHT22;52756;52.826;6.214;2022-08-06T08:22:34;29.10;36.40
54938;DHT22;52756;52.826;6.214;2022-08-06T08:24:59;29.10;36.40
54938;DHT22;52756;52.826;6.214;2022-08-06T08:27:25;29.10;36.10
54938;DHT22;52756;52.826;6.214;2022-08-06T08:29:51;29.10;36.00
54938;DHT22;52756;52.826;6.214;2022-08-06T08:32:17;29.10;35.80
54938;DHT22;52756;52.826;6.214;2022-08-06T08:34:43;29.10;36.40
54938;DHT22;52756;52.826;6.214;2022-08-06T08:37:09;29.10;35.90
54938;DHT22;52756;52.826;6.214;2022-08-06T08:39:34;29.10;36.10
54938;DHT22;52756;52.826;6.214;2022-08-06T08:42:04;29.10;36.10
54938;DHT22;52756;52.826;6.214;2022-08-06T08:44:34;29.10;35.90
54938;DHT22;52756;52.826;6.214;2022-08-06T08:47:01;29.10;35.90
54938;DHT22;52756;52.826;6.214;2022-08-06T08:52:24;29.20;35.70
54938;DHT22;52756;52.826;6.214;2022-08-06T08:54:55;29.20;35.60
54938;DHT22;52756;52.826;6.214;2022-08-06T08:57:25;29.10;35.40
54938;DHT22;52756;52.826;6.214;2022-08-06T08:59:51;29.00;35.00
54938;DHT22;52756;52.826;6.214;2022-08-06T09:02:17;28.90;35.00
54938;DHT22;52756;52.826;6.214;2022-08-06T09:04:44;28.90;35.50
54938;DHT22;52756;52.826;6.214;2022-08-06T09:07:10;28.80;35.40
54938;DHT22;52756;52.826;6.214;2022-08-06T09:09:37;28.80;36.00
54938;DHT22;52756;52.826;6.214;2022-08-06T09:12:05;28.80;36.00
54938;DHT22;52756;52.826;6.214;2022-08-06T09:14:31;28.80;35.90
54938;DHT22;52756;52.826;6.214;2022-08-06T09:16:57;28.80;35.90
54938;DHT22;52756;52.826;6.214;2022-08-06T09:19:25;28.80;35.40
54938;DHT22;52756;52.826;6.214;2022-08-06T09:21:55;28.70;35.10
54938;DHT22;52756;52.826;6.214;2022-08-06T09:24:22;28.70;34.80
54938;DHT22;52756;52.826;6.214;2022-08-06T09:27:14;28.60;34.90
54938;DHT22;52756;52.826;6.214;2022-08-06T09:29:50;28.60;35.40
54938;DHT22;52756;52.826;6.214;2022-08-06T09:35:01;28.60;35.70
54938;DHT22;52756;52.826;6.214;2022-08-06T09:37:30;28.60;35.60
54938;DHT22;52756;52.826;6.214;2022-08-06T09:39:55;28.60;35.50
54938;DHT22;52756;52.826;6.214;2022-08-06T09:42:38;28.50;35.10
54938;DHT22;52756;52.826;6.214;2022-08-06T09:45:07;28.50;35.60
54938;DHT22;52756;52.826;6.214;2022-08-06T09:47:33;28.40;35.30
54938;DHT22;52756;52.826;6.214;2022-08-06T09:49:59;28.30;35.40
54938;DHT22;52756;52.826;6.214;2022-08-06T09:52:25;28.30;35.10
54938;DHT22;52756;52.826;6.214;2022-08-06T09:54:51;28.30;35.50
54938;DHT22;52756;52.826;6.214;2022-08-06T09:57:16;28.30;35.80
54938;DHT22;52756;52.826;6.214;2022-08-06T09:59:47;28.40;35.90
54938;DHT22;52756;52.826;6.214;2022-08-06T10:02:14;28.40;35.70
54938;DHT22;52756;52.826;6.214;2022-08-06T10:04:41;28.40;36.00
54938;DHT22;52756;52.826;6.214;2022-08-06T10:07:07;28.30;35.80
54938;DHT22;52756;52.826;6.214;2022-08-06T10:09:33;28.30;35.70
54938;DHT22;52756;52.826;6.214;2022-08-06T10:11:59;28.30;35.20
54938;DHT22;52756;52.826;6.214;2022-08-06T10:14:30;28.30;34.60
54938;DHT22;52756;52.826;6.214;2022-08-06T10:17:08;28.30;34.70
54938;DHT22;52756;52.826;6.214;2022-08-06T10:19:35;28.30;34.30
54938;DHT22;52756;52.826;6.214;2022-08-06T10:22:06;28.30;34.20
54938;DHT22;52756;52.826;6.214;2022-08-06T10:24:36;28.30;34.70
54938;DHT22;52756;52.826;6.214;2022-08-06T10:27:07;28.40;34.80
54938;DHT22;52756;52.826;6.214;2022-08-06T10:29:35;28.40;34.80
54938;DHT22;52756;52.826;6.214;2022-08-06T10:32:04;28.40;34.90
54938;DHT22;52756;52.826;6.214;2022-08-06T10:34:33;28.30;35.10
54938;DHT22;52756;52.826;6.214;2022-08-06T10:37:03;28.20;34.90
54938;DHT22;52756;52.826;6.214;2022-08-06T10:39:34;28.10;35.10
54938;DHT22;52756;52.826;6.214;2022-08-06T10:42:03;28.10;35.50
54938;DHT22;52756;52.826;6.214;2022-08-06T10:44:30;27.90;35.20
54938;DHT22;52756;52.826;6.214;2022-08-06T10:46:56;27.80;35.30
54938;DHT22;52756;52.826;6.214;2022-08-06T10:49:22;27.70;35.40
54938;DHT22;52756;52.826;6.214;2022-08-06T10:51:49;27.60;35.50
54938;DHT22;52756;52.826;6.214;2022-08-06T10:54:18;27.50;35.80
54938;DHT22;52756;52.826;6.214;2022-08-06T10:56:48;27.40;35.70
54938;DHT22;52756;52.826;6.214;2022-08-06T10:59:15;27.30;35.60
54938;DHT22;52756;52.826;6.214;2022-08-06T11:02:11;27.20;35.40
54938;DHT22;52756;52.826;6.214;2022-08-06T11:16:28;26.50;36.70
54938;DHT22;52756;52.826;6.214;2022-08-06T11:19:08;26.40;36.90
54938;DHT22;52756;52.826;6.214;2022-08-06T11:24:07;26.20;37.10
54938;DHT22;52756;52.826;6.214;2022-08-06T11:26:39;26.10;37.40
54938;DHT22;52756;52.826;6.214;2022-08-06T11:29:07;26.10;36.70
54938;DHT22;52756;52.826;6.214;2022-08-06T11:31:34;26.00;36.90
54938;DHT22;52756;52.826;6.214;2022-08-06T11:34:09;26.00;37.20
54938;DHT22;52756;52.826;6.214;2022-08-06T11:36:55;26.00;36.90
54938;DHT22;52756;52.826;6.214;2022-08-06T11:39:26;26.00;37.10
54938;DHT22;52756;52.826;6.214;2022-08-06T11:41:58;26.00;36.90
54938;DHT22;52756;52.826;6.214;2022-08-06T11:44:33;26.00;36.90
54938;DHT22;52756;52.826;6.214;2022-08-06T11:47:08;26.00;36.30
54938;DHT22;52756;52.826;6.214;2022-08-06T11:49:45;26.00;36.40
54938;DHT22;52756;52.826;6.214;2022-08-06T11:55:00;26.00;36.30
54938;DHT22;52756;52.826;6.214;2022-08-06T11:57:26;26.00;36.10
54938;DHT22;52756;52.826;6.214;2022-08-06T12:05:05;26.20;35.00
54938;DHT22;52756;52.826;6.214;2022-08-06T12:07:33;26.30;35.40
54938;DHT22;52756;52.826;6.214;2022-08-06T12:10:08;26.30;35.20
54938;DHT22;52756;52.826;6.214;2022-08-06T12:12:36;26.40;35.60
54938;DHT22;52756;52.826;6.214;2022-08-06T12:17:29;26.40;36.50
54938;DHT22;52756;52.826;6.214;2022-08-06T12:19:58;26.40;36.80
54938;DHT22;52756;52.826;6.214;2022-08-06T12:22:28;26.40;37.00
54938;DHT22;52756;52.826;6.214;2022-08-06T12:24:58;26.40;37.70
54938;DHT22;52756;52.826;6.214;2022-08-06T12:27:31;26.50;37.30
54938;DHT22;52756;52.826;6.214;2022-08-06T12:30:00;26.50;37.30
54938;DHT22;52756;52.826;6.214;2022-08-06T12:32:31;26.60;37.30
54938;DHT22;52756;52.826;6.214;2022-08-06T12:34:59;26.60;37.40
54938;DHT22;52756;52.826;6.214;2022-08-06T12:37:37;26.70;36.90
54938;DHT22;52756;52.826;6.214;2022-08-06T12:40:08;26.70;36.80
54938;DHT22;52756;52.826;6.214;2022-08-06T12:45:25;26.80;36.90
54938;DHT22;52756;52.826;6.214;2022-08-06T12:50:29;26.90;34.70
54938;DHT22;52756;52.826;6.214;2022-08-06T12:55:27;26.90;36.00
54938;DHT22;52756;52.826;6.214;2022-08-06T12:57:55;27.00;35.80
54938;DHT22;52756;52.826;6.214;2022-08-06T13:00:21;27.00;34.80
54938;DHT22;52756;52.826;6.214;2022-08-06T13:02:48;27.00;35.60
54938;DHT22;52756;52.826;6.214;2022-08-06T13:05:14;27.00;35.80
54938;DHT22;52756;52.826;6.214;2022-08-06T13:07:41;27.00;35.20
54938;DHT22;52756;52.826;6.214;2022-08-06T13:10:09;27.00;35.50
54938;DHT22;52756;52.826;6.214;2022-08-06T13:12:35;27.00;36.00
54938;DHT22;52756;52.826;6.214;2022-08-06T13:15:11;27.00;36.10
54938;DHT22;52756;52.826;6.214;2022-08-06T13:17:37;27.10;36.10
54938;DHT22;52756;52.826;6.214;2022-08-06T13:20:03;27.00;35.90
54938;DHT22;52756;52.826;6.214;2022-08-06T13:22:29;27.10;35.60
54938;DHT22;52756;52.826;6.214;2022-08-06T13:25:12;27.10;35.80
54938;DHT22;52756;52.826;6.214;2022-08-06T13:27:38;27.20;36.20
54938;DHT22;52756;52.826;6.214;2022-08-06T13:30:08;27.10;36.00
54938;DHT22;52756;52.826;6.214;2022-08-06T13:32:36;27.20;35.90
54938;DHT22;52756;52.826;6.214;2022-08-06T13:35:04;27.10;36.10
54938;DHT22;52756;52.826;6.214;2022-08-06T13:37:51;27.10;34.90
54938;DHT22;52756;52.826;6.214;2022-08-06T13:40:18;27.00;35.30
54938;DHT22;52756;52.826;6.214;2022-08-06T13:42:51;26.90;35.20
54938;DHT22;52756;52.826;6.214;2022-08-06T13:45:21;26.80;35.30
54938;DHT22;52756;52.826;6.214;2022-08-06T13:47:48;26.70;35.30
54938;DHT22;52756;52.826;6.214;2022-08-06T13:50:20;26.60;35.30
54938;DHT22;52756;52.826;6.214;2022-08-06T13:52:46;26.60;35.10
54938;DHT22;52756;52.826;6.214;2022-08-06T13:55:12;26.60;35.00
54938;DHT22;52756;52.826;6.214;2022-08-06T13:57:38;26.60;35.20
54938;DHT22;52756;52.826;6.214;2022-08-06T14:00:05;26.60;35.50
54938;DHT22;52756;52.826;6.214;2022-08-06T14:02:34;26.70;35.00
54938;DHT22;52756;52.826;6.214;2022-08-06T14:05:00;26.70;34.60
54938;DHT22;52756;52.826;6.214;2022-08-06T14:07:26;26.70;35.20
54938;DHT22;52756;52.826;6.214;2022-08-06T14:09:52;26.70;35.10
54938;DHT22;52756;52.826;6.214;2022-08-06T14:12:18;26.70;34.60
54938;DHT22;52756;52.826;6.214;2022-08-06T14:14:43;26.70;34.70
54938;DHT22;52756;52.826;6.214;2022-08-06T14:17:09;26.70;35.20
54938;DHT22;52756;52.826;6.214;2022-08-06T14:19:35;26.70;35.40
54938;DHT22;52756;52.826;6.214;2022-08-06T14:22:00;26.70;35.10
54938;DHT22;52756;52.826;6.214;2022-08-06T14:24:26;26.80;35.10
54938;DHT22;52756;52.826;6.214;2022-08-06T14:26:51;26.80;35.20
54938;DHT22;52756;52.826;6.214;2022-08-06T14:29:17;26.80;35.30
54938;DHT22;52756;52.826;6.214;2022-08-06T14:31:43;26.80;35.10
54938;DHT22;52756;52.826;6.214;2022-08-06T14:34:09;26.80;35.30
54938;DHT22;52756;52.826;6.214;2022-08-06T14:36:34;26.80;35.30
54938;DHT22;52756;52.826;6.214;2022-08-06T14:39:00;26.90;34.70
54938;DHT22;52756;52.826;6.214;2022-08-06T14:41:26;26.90;35.10
54938;DHT22;52756;52.826;6.214;2022-08-06T14:44:11;27.00;35.00
54938;DHT22;52756;52.826;6.214;2022-08-06T14:46:55;27.10;34.60
54938;DHT22;52756;52.826;6.214;2022-08-06T14:49:21;27.10;34.30
54938;DHT22;52756;52.826;6.214;2022-08-06T14:51:47;27.10;34.20
54938;DHT22;52756;52.826;6.214;2022-08-06T14:54:13;27.20;34.50
54938;DHT22;52756;52.826;6.214;2022-08-06T14:56:39;27.20;34.60
54938;DHT22;52756;52.826;6.214;2022-08-06T14:59:05;27.20;34.60
54938;DHT22;52756;52.826;6.214;2022-08-06T15:01:30;27.30;34.10
54938;DHT22;52756;52.826;6.214;2022-08-06T15:03:56;27.30;34.50
54938;DHT22;52756;52.826;6.214;2022-08-06T15:06:21;27.30;34.80
54938;DHT22;52756;52.826;6.214;2022-08-06T15:08:47;27.30;34.70
54938;DHT22;52756;52.826;6.214;2022-08-06T15:11:13;27.30;34.40
54938;DHT22;52756;52.826;6.214;2022-08-06T15:13:39;27.30;33.70
54938;DHT22;52756;52.826;6.214;2022-08-06T15:16:05;27.30;33.80
54938;DHT22;52756;52.826;6.214;2022-08-06T15:18:31;27.30;33.80
54938;DHT22;52756;52.826;6.214;2022-08-06T15:20:56;27.30;33.60
54938;DHT22;52756;52.826;6.214;2022-08-06T15:23:22;27.30;34.10
54938;DHT22;52756;52.826;6.214;2022-08-06T15:25:48;27.30;34.30
54938;DHT22;52756;52.826;6.214;2022-08-06T15:28:14;27.30;34.50
54938;DHT22;52756;52.826;6.214;2022-08-06T15:30:41;27.30;33.90
54938;DHT22;52756;52.826;6.214;2022-08-06T15:33:07;27.40;33.90
54938;DHT22;52756;52.826;6.214;2022-08-06T15:35:33;27.40;33.80
54938;DHT22;52756;52.826;6.214;2022-08-06T15:37:58;27.40;34.00
54938;DHT22;52756;52.826;6.214;2022-08-06T15:40:24;27.40;34.20
54938;DHT22;52756;52.826;6.214;2022-08-06T15:42:50;27.30;34.50
54938;DHT22;52756;52.826;6.214;2022-08-06T15:45:15;27.30;34.60
54938;DHT22;52756;52.826;6.214;2022-08-06T15:47:41;27.40;34.70
54938;DHT22;52756;52.826;6.214;2022-08-06T15:50:07;27.30;34.00
54938;DHT22;52756;52.826;6.214;2022-08-06T15:52:34;27.30;34.50
54938;DHT22;52756;52.826;6.214;2022-08-06T15:55:04;27.20;33.70
54938;DHT22;52756;52.826;6.214;2022-08-06T15:57:30;27.10;34.00
54938;DHT22;52756;52.826;6.214;2022-08-06T15:59:55;27.00;34.80
54938;DHT22;52756;52.826;6.214;2022-08-06T16:02:21;26.90;35.30
54938;DHT22;52756;52.826;6.214;2022-08-06T16:04:47;26.80;35.20
54938;DHT22;52756;52.826;6.214;2022-08-06T16:07:13;26.80;34.90
54938;DHT22;52756;52.826;6.214;2022-08-06T16:09:39;26.80;34.80
54938;DHT22;52756;52.826;6.214;2022-08-06T16:12:06;26.70;34.90
54938;DHT22;52756;52.826;6.214;2022-08-06T16:14:32;26.60;34.90
54938;DHT22;52756;52.826;6.214;2022-08-06T16:16:58;26.60;34.90
54938;DHT22;52756;52.826;6.214;2022-08-06T16:19:23;26.50;34.60
54938;DHT22;52756;52.826;6.214;2022-08-06T16:21:49;26.50;34.70
54938;DHT22;52756;52.826;6.214;2022-08-06T16:24:16;26.40;34.80
54938;DHT22;52756;52.826;6.214;2022-08-06T16:26:42;26.40;34.90
54938;DHT22;52756;52.826;6.214;2022-08-06T16:29:09;26.30;34.70
54938;DHT22;52756;52.826;6.214;2022-08-06T16:31:35;26.30;35.10
54938;DHT22;52756;52.826;6.214;2022-08-06T16:34:00;26.30;35.20
54938;DHT22;52756;52.826;6.214;2022-08-06T16:36:26;26.20;35.00
54938;DHT22;52756;52.826;6.214;2022-08-06T16:38:52;26.20;35.20
54938;DHT22;52756;52.826;6.214;2022-08-06T16:41:17;26.10;35.30
54938;DHT22;52756;52.826;6.214;2022-08-06T16:43:43;26.10;35.50
54938;DHT22;52756;52.826;6.214;2022-08-06T16:46:09;26.10;35.90